Terminal Aerodrome Forecast
Issued by NWS Amarillo, TX

Home | Current Version | Previous Version | Text Only | Print | Product List | Glossary On
Versions: 1 2 3 4 5 6 7 8 9 10 11 12 13
000
FTUS44 KAMA 031721
TAFAMA
TAF
KAMA 031721Z 0318/0418 20015G24KT P6SM SCT100 BKN250
     FM040200 17012KT P6SM SCT100 BKN250
     FM041000 19010KT P6SM BKN200=

USA.gov is the U.S. government's official web portal to all federal, state and local government web resources and services.